sensor_id;sensor_type;location;lat;lon;timestamp;P1;durP1;ratioP1;P2;durP2;ratioP2
29546;SDS011;40782;47.264;11.330;2022-12-18T00:02:22;20.88;;;14.45;;
29546;SDS011;40782;47.264;11.330;2022-12-18T00:04:49;22.20;;;13.68;;
29546;SDS011;40782;47.264;11.330;2022-12-18T00:07:16;22.15;;;15.13;;
29546;SDS011;40782;47.264;11.330;2022-12-18T00:09:43;29.27;;;17.60;;
29546;SDS011;40782;47.264;11.330;2022-12-18T00:12:11;25.33;;;14.65;;
29546;SDS011;40782;47.264;11.330;2022-12-18T00:14:38;25.13;;;15.40;;
29546;SDS011;40782;47.264;11.330;2022-12-18T00:17:07;24.83;;;15.70;;
29546;SDS011;40782;47.264;11.330;2022-12-18T00:19:34;22.50;;;15.55;;
29546;SDS011;40782;47.264;11.330;2022-12-18T00:22:01;23.08;;;14.65;;
29546;SDS011;40782;47.264;11.330;2022-12-18T00:24:28;23.80;;;14.75;;
29546;SDS011;40782;47.264;11.330;2022-12-18T00:26:56;20.90;;;13.77;;
29546;SDS011;40782;47.264;11.330;2022-12-18T00:29:23;23.63;;;14.45;;
29546;SDS011;40782;47.264;11.330;2022-12-18T00:31:50;23.58;;;15.13;;
29546;SDS011;40782;47.264;11.330;2022-12-18T00:34:19;23.40;;;15.38;;
29546;SDS011;40782;47.264;11.330;2022-12-18T00:36:47;24.15;;;14.88;;
29546;SDS011;40782;47.264;11.330;2022-12-18T00:39:14;23.80;;;14.52;;
29546;SDS011;40782;47.264;11.330;2022-12-18T00:41:41;23.80;;;15.25;;
29546;SDS011;40782;47.264;11.330;2022-12-18T00:44:26;26.08;;;15.15;;
29546;SDS011;40782;47.264;11.330;2022-12-18T00:46:53;27.48;;;15.55;;
29546;SDS011;40782;47.264;11.330;2022-12-18T00:49:21;24.23;;;15.63;;
29546;SDS011;40782;47.264;11.330;2022-12-18T00:51:48;23.05;;;15.50;;
29546;SDS011;40782;47.264;11.330;2022-12-18T00:54:16;26.98;;;16.08;;
29546;SDS011;40782;47.264;11.330;2022-12-18T00:56:43;29.30;;;17.77;;
29546;SDS011;40782;47.264;11.330;2022-12-18T00:59:11;28.42;;;18.02;;
29546;SDS011;40782;47.264;11.330;2022-12-18T01:01:38;24.20;;;16.45;;
29546;SDS011;40782;47.264;11.330;2022-12-18T01:04:05;26.88;;;17.35;;
29546;SDS011;40782;47.264;11.330;2022-12-18T01:06:34;29.73;;;16.90;;
29546;SDS011;40782;47.264;11.330;2022-12-18T01:09:01;31.10;;;17.38;;
29546;SDS011;40782;47.264;11.330;2022-12-18T01:11:28;28.42;;;17.45;;
29546;SDS011;40782;47.264;11.330;2022-12-18T01:13:55;24.15;;;16.52;;
29546;SDS011;40782;47.264;11.330;2022-12-18T01:16:24;26.13;;;16.85;;
29546;SDS011;40782;47.264;11.330;2022-12-18T01:18:51;22.40;;;15.52;;
29546;SDS011;40782;47.264;11.330;2022-12-18T01:21:19;25.80;;;16.55;;
29546;SDS011;40782;47.264;11.330;2022-12-18T01:23:51;27.80;;;15.88;;
29546;SDS011;40782;47.264;11.330;2022-12-18T01:26:20;24.45;;;15.50;;
29546;SDS011;40782;47.264;11.330;2022-12-18T01:28:47;23.67;;;15.85;;
29546;SDS011;40782;47.264;11.330;2022-12-18T01:31:16;22.40;;;14.88;;
29546;SDS011;40782;47.264;11.330;2022-12-18T01:33:44;24.05;;;16.17;;
29546;SDS011;40782;47.264;11.330;2022-12-18T01:36:15;23.42;;;15.25;;
29546;SDS011;40782;47.264;11.330;2022-12-18T01:38:44;26.05;;;16.40;;
29546;SDS011;40782;47.264;11.330;2022-12-18T01:41:13;28.10;;;16.27;;
29546;SDS011;40782;47.264;11.330;2022-12-18T01:43:43;27.65;;;16.92;;
29546;SDS011;40782;47.264;11.330;2022-12-18T01:46:13;25.33;;;16.80;;
29546;SDS011;40782;47.264;11.330;2022-12-18T01:48:43;27.30;;;17.45;;
29546;SDS011;40782;47.264;11.330;2022-12-18T01:51:13;28.52;;;18.05;;
29546;SDS011;40782;47.264;11.330;2022-12-18T01:53:40;25.63;;;16.40;;
29546;SDS011;40782;47.264;11.330;2022-12-18T01:56:11;26.08;;;17.13;;
29546;SDS011;40782;47.264;11.330;2022-12-18T01:58:48;27.40;;;16.35;;
29546;SDS011;40782;47.264;11.330;2022-12-18T02:01:20;24.70;;;16.38;;
29546;SDS011;40782;47.264;11.330;2022-12-18T02:03:49;27.58;;;16.90;;
29546;SDS011;40782;47.264;11.330;2022-12-18T02:06:19;27.77;;;17.60;;
29546;SDS011;40782;47.264;11.330;2022-12-18T02:08:53;30.27;;;16.77;;
29546;SDS011;40782;47.264;11.330;2022-12-18T02:11:32;27.38;;;16.38;;
29546;SDS011;40782;47.264;11.330;2022-12-18T02:14:09;26.15;;;16.90;;
29546;SDS011;40782;47.264;11.330;2022-12-18T02:16:44;30.40;;;17.45;;
29546;SDS011;40782;47.264;11.330;2022-12-18T02:19:27;25.02;;;16.45;;
29546;SDS011;40782;47.264;11.330;2022-12-18T02:22:24;23.85;;;16.67;;
29546;SDS011;40782;47.264;11.330;2022-12-18T02:25:00;25.80;;;16.02;;
29546;SDS011;40782;47.264;11.330;2022-12-18T02:27:38;26.08;;;16.42;;
29546;SDS011;40782;47.264;11.330;2022-12-18T02:30:08;24.80;;;16.43;;
29546;SDS011;40782;47.264;11.330;2022-12-18T02:32:36;27.83;;;15.82;;
29546;SDS011;40782;47.264;11.330;2022-12-18T02:35:09;25.17;;;15.60;;
29546;SDS011;40782;47.264;11.330;2022-12-18T02:37:45;22.35;;;14.85;;
29546;SDS011;40782;47.264;11.330;2022-12-18T02:40:14;23.67;;;14.48;;
29546;SDS011;40782;47.264;11.330;2022-12-18T02:42:44;22.77;;;14.57;;
29546;SDS011;40782;47.264;11.330;2022-12-18T02:45:11;24.33;;;16.00;;
29546;SDS011;40782;47.264;11.330;2022-12-18T02:47:39;26.27;;;16.73;;
29546;SDS011;40782;47.264;11.330;2022-12-18T02:50:12;25.58;;;16.17;;
29546;SDS011;40782;47.264;11.330;2022-12-18T02:52:47;28.98;;;16.38;;
29546;SDS011;40782;47.264;11.330;2022-12-18T02:55:25;26.30;;;15.80;;
29546;SDS011;40782;47.264;11.330;2022-12-18T02:58:04;22.90;;;15.18;;
29546;SDS011;40782;47.264;11.330;2022-12-18T03:00:40;25.25;;;14.80;;
29546;SDS011;40782;47.264;11.330;2022-12-18T03:03:12;21.10;;;13.75;;
29546;SDS011;40782;47.264;11.330;2022-12-18T03:05:43;20.73;;;14.18;;
29546;SDS011;40782;47.264;11.330;2022-12-18T03:08:17;23.60;;;13.80;;
29546;SDS011;40782;47.264;11.330;2022-12-18T03:10:48;19.75;;;13.07;;
29546;SDS011;40782;47.264;11.330;2022-12-18T03:13:22;21.42;;;14.38;;
29546;SDS011;40782;47.264;11.330;2022-12-18T03:15:58;18.70;;;13.32;;
29546;SDS011;40782;47.264;11.330;2022-12-18T03:18:27;20.63;;;13.38;;
29546;SDS011;40782;47.264;11.330;2022-12-18T03:20:58;21.38;;;13.65;;
29546;SDS011;40782;47.264;11.330;2022-12-18T03:23:30;21.50;;;14.35;;
29546;SDS011;40782;47.264;11.330;2022-12-18T03:26:02;19.52;;;13.52;;
29546;SDS011;40782;47.264;11.330;2022-12-18T03:28:36;19.75;;;12.93;;
29546;SDS011;40782;47.264;11.330;2022-12-18T03:31:09;18.73;;;12.73;;
29546;SDS011;40782;47.264;11.330;2022-12-18T03:33:39;17.67;;;11.98;;
29546;SDS011;40782;47.264;11.330;2022-12-18T03:36:10;19.70;;;12.70;;
29546;SDS011;40782;47.264;11.330;2022-12-18T03:38:37;17.52;;;12.52;;
29546;SDS011;40782;47.264;11.330;2022-12-18T03:41:06;18.92;;;12.57;;
29546;SDS011;40782;47.264;11.330;2022-12-18T03:43:43;17.30;;;11.80;;
29546;SDS011;40782;47.264;11.330;2022-12-18T03:46:18;19.85;;;12.52;;
29546;SDS011;40782;47.264;11.330;2022-12-18T03:48:52;18.10;;;12.23;;
29546;SDS011;40782;47.264;11.330;2022-12-18T03:51:26;17.73;;;12.13;;
29546;SDS011;40782;47.264;11.330;2022-12-18T03:54:00;21.00;;;12.68;;
29546;SDS011;40782;47.264;11.330;2022-12-18T03:56:32;17.60;;;11.70;;
29546;SDS011;40782;47.264;11.330;2022-12-18T03:59:04;20.50;;;13.60;;
29546;SDS011;40782;47.264;11.330;2022-12-18T04:01:34;24.15;;;13.02;;
29546;SDS011;40782;47.264;11.330;2022-12-18T04:04:05;21.35;;;13.95;;
29546;SDS011;40782;47.264;11.330;2022-12-18T04:06:35;24.02;;;14.80;;
29546;SDS011;40782;47.264;11.330;2022-12-18T04:09:03;21.98;;;14.27;;
29546;SDS011;40782;47.264;11.330;2022-12-18T04:11:31;19.63;;;14.02;;
29546;SDS011;40782;47.264;11.330;2022-12-18T04:13:58;20.13;;;13.07;;
29546;SDS011;40782;47.264;11.330;2022-12-18T04:16:27;22.50;;;13.82;;
29546;SDS011;40782;47.264;11.330;2022-12-18T04:18:54;22.95;;;13.77;;
29546;SDS011;40782;47.264;11.330;2022-12-18T04:21:22;28.00;;;14.82;;
29546;SDS011;40782;47.264;11.330;2022-12-18T04:23:49;21.77;;;14.25;;
29546;SDS011;40782;47.264;11.330;2022-12-18T04:26:16;25.55;;;15.32;;
29546;SDS011;40782;47.264;11.330;2022-12-18T04:28:43;21.27;;;14.23;;
29546;SDS011;40782;47.264;11.330;2022-12-18T04:31:10;25.05;;;15.00;;
29546;SDS011;40782;47.264;11.330;2022-12-18T04:33:39;25.45;;;15.48;;
29546;SDS011;40782;47.264;11.330;2022-12-18T04:36:06;25.40;;;15.65;;
29546;SDS011;40782;47.264;11.330;2022-12-18T04:38:34;25.67;;;14.95;;
29546;SDS011;40782;47.264;11.330;2022-12-18T04:41:01;22.13;;;14.27;;
29546;SDS011;40782;47.264;11.330;2022-12-18T04:43:28;20.30;;;13.25;;
29546;SDS011;40782;47.264;11.330;2022-12-18T04:46:01;19.75;;;13.82;;
29546;SDS011;40782;47.264;11.330;2022-12-18T04:48:29;23.70;;;14.60;;
29546;SDS011;40782;47.264;11.330;2022-12-18T04:50:57;18.58;;;12.82;;
29546;SDS011;40782;47.264;11.330;2022-12-18T04:53:24;20.17;;;13.48;;
29546;SDS011;40782;47.264;11.330;2022-12-18T04:56:01;26.38;;;15.18;;
29546;SDS011;40782;47.264;11.330;2022-12-18T04:58:30;20.23;;;13.00;;
29546;SDS011;40782;47.264;11.330;2022-12-18T05:00:57;21.38;;;14.55;;
29546;SDS011;40782;47.264;11.330;2022-12-18T05:03:24;22.65;;;13.38;;
29546;SDS011;40782;47.264;11.330;2022-12-18T05:05:51;20.88;;;13.77;;
29546;SDS011;40782;47.264;11.330;2022-12-18T05:08:20;21.40;;;13.82;;
29546;SDS011;40782;47.264;11.330;2022-12-18T05:10:47;22.08;;;14.20;;
29546;SDS011;40782;47.264;11.330;2022-12-18T05:13:14;23.15;;;14.60;;
29546;SDS011;40782;47.264;11.330;2022-12-18T05:15:42;20.20;;;13.80;;
29546;SDS011;40782;47.264;11.330;2022-12-18T05:18:09;22.73;;;14.90;;
29546;SDS011;40782;47.264;11.330;2022-12-18T05:20:36;23.08;;;13.93;;
29546;SDS011;40782;47.264;11.330;2022-12-18T05:23:03;20.02;;;12.82;;
29546;SDS011;40782;47.264;11.330;2022-12-18T05:25:31;19.15;;;12.57;;
29546;SDS011;40782;47.264;11.330;2022-12-18T05:27:58;20.20;;;13.55;;
29546;SDS011;40782;47.264;11.330;2022-12-18T05:30:26;23.80;;;13.55;;
29546;SDS011;40782;47.264;11.330;2022-12-18T05:32:53;20.98;;;13.10;;
29546;SDS011;40782;47.264;11.330;2022-12-18T05:35:20;20.02;;;12.95;;
29546;SDS011;40782;47.264;11.330;2022-12-18T05:37:48;24.48;;;14.88;;
29546;SDS011;40782;47.264;11.330;2022-12-18T05:40:15;45.55;;;28.60;;
29546;SDS011;40782;47.264;11.330;2022-12-18T05:42:43;45.03;;;26.40;;
29546;SDS011;40782;47.264;11.330;2022-12-18T05:45:10;48.03;;;29.35;;
29546;SDS011;40782;47.264;11.330;2022-12-18T05:47:38;38.10;;;22.55;;
29546;SDS011;40782;47.264;11.330;2022-12-18T05:50:05;23.67;;;15.13;;
29546;SDS011;40782;47.264;11.330;2022-12-18T05:52:34;24.25;;;15.20;;
29546;SDS011;40782;47.264;11.330;2022-12-18T05:55:01;25.67;;;15.43;;
29546;SDS011;40782;47.264;11.330;2022-12-18T05:57:28;24.13;;;13.18;;
29546;SDS011;40782;47.264;11.330;2022-12-18T05:59:56;21.08;;;13.63;;
29546;SDS011;40782;47.264;11.330;2022-12-18T06:02:23;22.05;;;14.85;;
29546;SDS011;40782;47.264;11.330;2022-12-18T06:04:51;20.35;;;13.63;;
29546;SDS011;40782;47.264;11.330;2022-12-18T06:07:18;19.27;;;13.25;;
29546;SDS011;40782;47.264;11.330;2022-12-18T06:09:45;18.70;;;12.35;;
29546;SDS011;40782;47.264;11.330;2022-12-18T06:12:12;19.35;;;13.10;;
29546;SDS011;40782;47.264;11.330;2022-12-18T06:14:39;21.17;;;13.35;;
29546;SDS011;40782;47.264;11.330;2022-12-18T06:17:08;23.77;;;13.65;;
29546;SDS011;40782;47.264;11.330;2022-12-18T06:19:35;17.77;;;11.57;;
29546;SDS011;40782;47.264;11.330;2022-12-18T06:22:02;19.58;;;12.48;;
29546;SDS011;40782;47.264;11.330;2022-12-18T06:24:29;19.25;;;12.60;;
29546;SDS011;40782;47.264;11.330;2022-12-18T06:26:56;17.88;;;11.57;;
29546;SDS011;40782;47.264;11.330;2022-12-18T06:29:23;18.48;;;12.73;;
29546;SDS011;40782;47.264;11.330;2022-12-18T06:31:51;17.95;;;11.85;;
29546;SDS011;40782;47.264;11.330;2022-12-18T06:34:19;16.88;;;11.65;;
29546;SDS011;40782;47.264;11.330;2022-12-18T06:36:46;20.05;;;12.77;;
29546;SDS011;40782;47.264;11.330;2022-12-18T06:39:13;17.02;;;11.98;;
29546;SDS011;40782;47.264;11.330;2022-12-18T06:41:40;21.42;;;12.48;;
29546;SDS011;40782;47.264;11.330;2022-12-18T06:44:08;21.75;;;13.05;;
29546;SDS011;40782;47.264;11.330;2022-12-18T06:46:35;18.75;;;12.27;;
29546;SDS011;40782;47.264;11.330;2022-12-18T06:49:03;19.52;;;12.38;;
29546;SDS011;40782;47.264;11.330;2022-12-18T06:51:32;18.75;;;12.32;;
29546;SDS011;40782;47.264;11.330;2022-12-18T06:53:59;20.25;;;13.15;;
29546;SDS011;40782;47.264;11.330;2022-12-18T06:56:26;18.05;;;11.82;;
29546;SDS011;40782;47.264;11.330;2022-12-18T06:58:54;16.55;;;11.43;;
29546;SDS011;40782;47.264;11.330;2022-12-18T07:01:21;15.98;;;11.02;;
29546;SDS011;40782;47.264;11.330;2022-12-18T07:03:51;16.27;;;11.57;;
29546;SDS011;40782;47.264;11.330;2022-12-18T07:06:20;17.35;;;12.13;;
29546;SDS011;40782;47.264;11.330;2022-12-18T07:08:50;16.95;;;11.35;;
29546;SDS011;40782;47.264;11.330;2022-12-18T07:11:19;20.13;;;12.52;;
29546;SDS011;40782;47.264;11.330;2022-12-18T07:13:46;16.83;;;11.40;;
29546;SDS011;40782;47.264;11.330;2022-12-18T07:16:14;15.88;;;10.85;;
29546;SDS011;40782;47.264;11.330;2022-12-18T07:18:42;16.40;;;11.52;;
29546;SDS011;40782;47.264;11.330;2022-12-18T07:21:11;19.65;;;12.95;;
29546;SDS011;40782;47.264;11.330;2022-12-18T07:23:39;18.70;;;12.38;;
29546;SDS011;40782;47.264;11.330;2022-12-18T07:26:09;20.65;;;12.93;;
29546;SDS011;40782;47.264;11.330;2022-12-18T07:28:38;17.42;;;11.82;;
29546;SDS011;40782;47.264;11.330;2022-12-18T07:31:06;20.35;;;12.25;;
29546;SDS011;40782;47.264;11.330;2022-12-18T07:33:35;20.90;;;12.23;;
29546;SDS011;40782;47.264;11.330;2022-12-18T07:36:06;15.10;;;11.05;;
29546;SDS011;40782;47.264;11.330;2022-12-18T07:38:34;18.25;;;11.98;;
29546;SDS011;40782;47.264;11.330;2022-12-18T07:41:02;18.00;;;12.05;;
29546;SDS011;40782;47.264;11.330;2022-12-18T07:43:37;17.83;;;11.30;;
29546;SDS011;40782;47.264;11.330;2022-12-18T07:46:07;16.70;;;11.50;;
29546;SDS011;40782;47.264;11.330;2022-12-18T07:48:36;18.30;;;11.95;;
29546;SDS011;40782;47.264;11.330;2022-12-18T07:51:04;17.75;;;11.75;;
29546;SDS011;40782;47.264;11.330;2022-12-18T07:53:32;16.77;;;11.15;;
29546;SDS011;40782;47.264;11.330;2022-12-18T07:56:01;18.45;;;11.45;;
29546;SDS011;40782;47.264;11.330;2022-12-18T07:58:30;15.77;;;11.65;;
29546;SDS011;40782;47.264;11.330;2022-12-18T08:01:03;17.75;;;11.60;;
29546;SDS011;40782;47.264;11.330;2022-12-18T08:03:32;15.32;;;10.80;;
29546;SDS011;40782;47.264;11.330;2022-12-18T08:06:00;16.08;;;10.40;;
29546;SDS011;40782;47.264;11.330;2022-12-18T08:08:27;16.08;;;11.23;;
29546;SDS011;40782;47.264;11.330;2022-12-18T08:10:55;17.75;;;11.45;;
29546;SDS011;40782;47.264;11.330;2022-12-18T08:13:25;15.70;;;11.82;;
29546;SDS011;40782;47.264;11.330;2022-12-18T08:15:58;18.52;;;12.02;;
29546;SDS011;40782;47.264;11.330;2022-12-18T08:18:31;18.42;;;12.13;;
29546;SDS011;40782;47.264;11.330;2022-12-18T08:21:06;15.38;;;11.20;;
29546;SDS011;40782;47.264;11.330;2022-12-18T08:23:34;16.90;;;11.63;;
29546;SDS011;40782;47.264;11.330;2022-12-18T08:26:02;18.58;;;12.25;;
29546;SDS011;40782;47.264;11.330;2022-12-18T08:28:29;17.70;;;12.00;;
29546;SDS011;40782;47.264;11.330;2022-12-18T08:30:56;19.90;;;12.98;;
29546;SDS011;40782;47.264;11.330;2022-12-18T08:33:25;19.60;;;11.88;;
29546;SDS011;40782;47.264;11.330;2022-12-18T08:35:52;18.35;;;12.30;;
29546;SDS011;40782;47.264;11.330;2022-12-18T08:38:19;23.38;;;12.68;;
29546;SDS011;40782;47.264;11.330;2022-12-18T08:40:48;17.85;;;11.88;;
29546;SDS011;40782;47.264;11.330;2022-12-18T08:43:15;21.70;;;12.80;;
29546;SDS011;40782;47.264;11.330;2022-12-18T08:45:59;26.77;;;17.42;;
29546;SDS011;40782;47.264;11.330;2022-12-18T08:48:28;20.33;;;12.95;;
29546;SDS011;40782;47.264;11.330;2022-12-18T08:50:55;20.05;;;13.35;;
29546;SDS011;40782;47.264;11.330;2022-12-18T08:53:24;16.80;;;12.13;;
29546;SDS011;40782;47.264;11.330;2022-12-18T08:55:51;20.40;;;12.43;;
29546;SDS011;40782;47.264;11.330;2022-12-18T08:58:18;16.75;;;12.15;;
29546;SDS011;40782;47.264;11.330;2022-12-18T09:00:46;16.92;;;12.27;;
29546;SDS011;40782;47.264;11.330;2022-12-18T09:03:13;16.65;;;12.00;;
29546;SDS011;40782;47.264;11.330;2022-12-18T09:05:42;15.40;;;11.18;;
29546;SDS011;40782;47.264;11.330;2022-12-18T09:08:10;18.25;;;11.45;;
29546;SDS011;40782;47.264;11.330;2022-12-18T09:10:41;17.15;;;12.00;;
29546;SDS011;40782;47.264;11.330;2022-12-18T09:13:09;17.13;;;11.65;;
29546;SDS011;40782;47.264;11.330;2022-12-18T09:15:39;19.05;;;11.25;;
29546;SDS011;40782;47.264;11.330;2022-12-18T09:18:07;17.63;;;11.63;;
29546;SDS011;40782;47.264;11.330;2022-12-18T09:20:35;18.33;;;11.88;;
29546;SDS011;40782;47.264;11.330;2022-12-18T09:23:03;15.57;;;10.70;;
29546;SDS011;40782;47.264;11.330;2022-12-18T09:25:31;17.15;;;10.15;;
29546;SDS011;40782;47.264;11.330;2022-12-18T09:28:01;15.82;;;9.82;;
29546;SDS011;40782;47.264;11.330;2022-12-18T09:30:29;16.63;;;10.57;;
29546;SDS011;40782;47.264;11.330;2022-12-18T09:32:58;16.95;;;10.13;;
29546;SDS011;40782;47.264;11.330;2022-12-18T09:35:26;13.45;;;9.77;;
29546;SDS011;40782;47.264;11.330;2022-12-18T09:37:54;13.88;;;9.10;;
29546;SDS011;40782;47.264;11.330;2022-12-18T09:40:23;13.82;;;8.70;;
29546;SDS011;40782;47.264;11.330;2022-12-18T09:42:53;11.25;;;8.30;;
29546;SDS011;40782;47.264;11.330;2022-12-18T09:45:23;11.23;;;7.65;;
29546;SDS011;40782;47.264;11.330;2022-12-18T09:47:51;9.63;;;6.80;;
29546;SDS011;40782;47.264;11.330;2022-12-18T09:50:23;9.77;;;5.80;;
29546;SDS011;40782;47.264;11.330;2022-12-18T09:52:54;9.32;;;6.53;;
29546;SDS011;40782;47.264;11.330;2022-12-18T09:55:28;10.18;;;5.43;;
29546;SDS011;40782;47.264;11.330;2022-12-18T09:57:59;9.48;;;6.05;;
29546;SDS011;40782;47.264;11.330;2022-12-18T10:00:31;8.15;;;5.68;;
29546;SDS011;40782;47.264;11.330;2022-12-18T10:02:59;9.88;;;6.72;;
29546;SDS011;40782;47.264;11.330;2022-12-18T10:05:33;12.50;;;6.30;;
29546;SDS011;40782;47.264;11.330;2022-12-18T10:08:09;9.35;;;5.93;;
29546;SDS011;40782;47.264;11.330;2022-12-18T10:10:46;12.40;;;6.07;;
29546;SDS011;40782;47.264;11.330;2022-12-18T10:13:18;8.38;;;5.57;;
29546;SDS011;40782;47.264;11.330;2022-12-18T10:18:47;8.10;;;5.28;;
29546;SDS011;40782;47.264;11.330;2022-12-18T10:21:25;15.52;;;7.00;;
29546;SDS011;40782;47.264;11.330;2022-12-18T10:23:58;10.77;;;6.72;;
29546;SDS011;40782;47.264;11.330;2022-12-18T10:26:39;11.18;;;7.10;;
29546;SDS011;40782;47.264;11.330;2022-12-18T10:29:08;10.02;;;6.47;;
29546;SDS011;40782;47.264;11.330;2022-12-18T10:31:38;15.07;;;7.18;;
29546;SDS011;40782;47.264;11.330;2022-12-18T10:34:08;10.48;;;6.28;;
29546;SDS011;40782;47.264;11.330;2022-12-18T10:36:36;10.48;;;6.55;;
29546;SDS011;40782;47.264;11.330;2022-12-18T10:41:52;16.77;;;7.13;;
29546;SDS011;40782;47.264;11.330;2022-12-18T10:44:38;10.05;;;7.22;;
29546;SDS011;40782;47.264;11.330;2022-12-18T10:47:06;9.50;;;5.50;;
29546;SDS011;40782;47.264;11.330;2022-12-18T10:49:39;15.02;;;5.13;;
29546;SDS011;40782;47.264;11.330;2022-12-18T10:52:15;9.48;;;5.22;;
29546;SDS011;40782;47.264;11.330;2022-12-18T10:54:46;8.93;;;4.97;;
29546;SDS011;40782;47.264;11.330;2022-12-18T10:57:33;7.65;;;4.75;;
29546;SDS011;40782;47.264;11.330;2022-12-18T11:02:54;5.55;;;4.45;;
29546;SDS011;40782;47.264;11.330;2022-12-18T11:05:23;8.10;;;5.28;;
29546;SDS011;40782;47.264;11.330;2022-12-18T11:07:55;5.78;;;4.22;;
29546;SDS011;40782;47.264;11.330;2022-12-18T11:10:25;7.00;;;4.55;;
29546;SDS011;40782;47.264;11.330;2022-12-18T11:13:09;4.50;;;3.72;;
29546;SDS011;40782;47.264;11.330;2022-12-18T11:15:43;6.60;;;3.85;;
29546;SDS011;40782;47.264;11.330;2022-12-18T11:18:16;21.83;;;12.70;;
29546;SDS011;40782;47.264;11.330;2022-12-18T11:20:50;6.40;;;3.95;;
29546;SDS011;40782;47.264;11.330;2022-12-18T11:23:19;6.82;;;4.07;;
29546;SDS011;40782;47.264;11.330;2022-12-18T11:25:53;9.45;;;4.18;;
29546;SDS011;40782;47.264;11.330;2022-12-18T11:28:28;9.68;;;3.80;;
29546;SDS011;40782;47.264;11.330;2022-12-18T11:31:09;3.75;;;3.35;;
29546;SDS011;40782;47.264;11.330;2022-12-18T11:33:44;9.20;;;4.07;;
29546;SDS011;40782;47.264;11.330;2022-12-18T11:36:16;7.00;;;3.70;;
29546;SDS011;40782;47.264;11.330;2022-12-18T11:38:43;6.00;;;4.18;;
29546;SDS011;40782;47.264;11.330;2022-12-18T11:41:15;6.05;;;3.95;;
29546;SDS011;40782;47.264;11.330;2022-12-18T11:44:11;7.95;;;3.47;;
29546;SDS011;40782;47.264;11.330;2022-12-18T11:46:43;4.70;;;3.30;;
29546;SDS011;40782;47.264;11.330;2022-12-18T11:49:15;6.20;;;4.30;;
29546;SDS011;40782;47.264;11.330;2022-12-18T11:51:50;6.90;;;4.10;;
29546;SDS011;40782;47.264;11.330;2022-12-18T11:54:21;6.63;;;4.93;;
29546;SDS011;40782;47.264;11.330;2022-12-18T11:56:49;6.72;;;4.72;;
29546;SDS011;40782;47.264;11.330;2022-12-18T11:59:26;10.80;;;5.47;;
29546;SDS011;40782;47.264;11.330;2022-12-18T12:02:00;6.13;;;4.28;;
29546;SDS011;40782;47.264;11.330;2022-12-18T12:04:57;11.23;;;4.25;;
29546;SDS011;40782;47.264;11.330;2022-12-18T12:07:35;7.75;;;4.68;;
29546;SDS011;40782;47.264;11.330;2022-12-18T12:10:11;10.73;;;4.78;;
29546;SDS011;40782;47.264;11.330;2022-12-18T12:12:53;5.23;;;3.87;;
29546;SDS011;40782;47.264;11.330;2022-12-18T12:15:33;8.23;;;4.00;;
29546;SDS011;40782;47.264;11.330;2022-12-18T12:18:12;7.38;;;4.05;;
29546;SDS011;40782;47.264;11.330;2022-12-18T12:20:49;6.63;;;4.32;;
29546;SDS011;40782;47.264;11.330;2022-12-18T12:23:27;5.93;;;4.15;;
29546;SDS011;40782;47.264;11.330;2022-12-18T12:26:01;8.25;;;4.65;;
29546;SDS011;40782;47.264;11.330;2022-12-18T12:28:42;8.57;;;4.18;;
29546;SDS011;40782;47.264;11.330;2022-12-18T12:31:37;7.63;;;4.10;;
29546;SDS011;40782;47.264;11.330;2022-12-18T12:34:19;7.30;;;4.35;;
29546;SDS011;40782;47.264;11.330;2022-12-18T12:36:52;7.00;;;4.53;;
29546;SDS011;40782;47.264;11.330;2022-12-18T12:39:31;9.07;;;4.55;;
29546;SDS011;40782;47.264;11.330;2022-12-18T12:42:02;7.85;;;4.35;;
29546;SDS011;40782;47.264;11.330;2022-12-18T12:44:50;7.43;;;4.13;;
29546;SDS011;40782;47.264;11.330;2022-12-18T12:47:23;10.68;;;4.25;;
29546;SDS011;40782;47.264;11.330;2022-12-18T12:49:54;6.55;;;3.78;;
29546;SDS011;40782;47.264;11.330;2022-12-18T12:52:26;11.80;;;3.92;;
29546;SDS011;40782;47.264;11.330;2022-12-18T12:54:56;5.65;;;4.10;;
29546;SDS011;40782;47.264;11.330;2022-12-18T12:57:27;6.78;;;3.80;;
29546;SDS011;40782;47.264;11.330;2022-12-18T13:00:00;7.05;;;3.70;;
29546;SDS011;40782;47.264;11.330;2022-12-18T13:02:33;5.22;;;4.07;;
29546;SDS011;40782;47.264;11.330;2022-12-18T13:05:06;4.53;;;3.35;;
29546;SDS011;40782;47.264;11.330;2022-12-18T13:07:45;5.45;;;4.20;;
29546;SDS011;40782;47.264;11.330;2022-12-18T13:10:25;6.57;;;4.18;;
29546;SDS011;40782;47.264;11.330;2022-12-18T13:12:58;6.05;;;4.45;;
29546;SDS011;40782;47.264;11.330;2022-12-18T13:15:27;6.05;;;3.97;;
29546;SDS011;40782;47.264;11.330;2022-12-18T13:18:10;6.47;;;4.18;;
29546;SDS011;40782;47.264;11.330;2022-12-18T13:20:41;8.02;;;4.32;;
29546;SDS011;40782;47.264;11.330;2022-12-18T13:23:29;6.15;;;4.32;;
29546;SDS011;40782;47.264;11.330;2022-12-18T13:26:00;5.72;;;3.97;;
29546;SDS011;40782;47.264;11.330;2022-12-18T13:28:57;6.68;;;4.78;;
29546;SDS011;40782;47.264;11.330;2022-12-18T13:34:35;5.60;;;4.47;;
29546;SDS011;40782;47.264;11.330;2022-12-18T13:43:23;6.00;;;4.13;;
29546;SDS011;40782;47.264;11.330;2022-12-18T13:46:05;42.28;;;6.90;;
29546;SDS011;40782;47.264;11.330;2022-12-18T13:48:49;6.38;;;4.32;;
29546;SDS011;40782;47.264;11.330;2022-12-18T13:51:19;7.13;;;4.07;;
29546;SDS011;40782;47.264;11.330;2022-12-18T13:53:49;6.53;;;4.13;;
29546;SDS011;40782;47.264;11.330;2022-12-18T13:56:18;9.25;;;5.32;;
29546;SDS011;40782;47.264;11.330;2022-12-18T14:01:43;13.10;;;5.40;;
29546;SDS011;40782;47.264;11.330;2022-12-18T14:04:19;7.53;;;4.72;;
29546;SDS011;40782;47.264;11.330;2022-12-18T14:06:51;10.52;;;4.93;;
29546;SDS011;40782;47.264;11.330;2022-12-18T14:09:23;9.45;;;5.22;;
29546;SDS011;40782;47.264;11.330;2022-12-18T14:11:53;9.73;;;5.10;;
29546;SDS011;40782;47.264;11.330;2022-12-18T14:14:43;8.50;;;4.93;;
29546;SDS011;40782;47.264;11.330;2022-12-18T14:17:12;11.15;;;5.60;;
29546;SDS011;40782;47.264;11.330;2022-12-18T14:19:41;11.15;;;4.95;;
29546;SDS011;40782;47.264;11.330;2022-12-18T14:22:16;17.30;;;6.30;;
29546;SDS011;40782;47.264;11.330;2022-12-18T14:24:45;14.25;;;5.32;;
29546;SDS011;40782;47.264;11.330;2022-12-18T14:27:19;8.95;;;4.40;;
29546;SDS011;40782;47.264;11.330;2022-12-18T14:29:48;10.55;;;6.03;;
29546;SDS011;40782;47.264;11.330;2022-12-18T14:32:16;14.10;;;7.28;;
29546;SDS011;40782;47.264;11.330;2022-12-18T14:34:45;12.88;;;7.18;;
29546;SDS011;40782;47.264;11.330;2022-12-18T14:37:14;11.85;;;5.95;;
29546;SDS011;40782;47.264;11.330;2022-12-18T14:39:56;11.07;;;6.68;;
29546;SDS011;40782;47.264;11.330;2022-12-18T14:42:25;12.73;;;6.70;;
29546;SDS011;40782;47.264;11.330;2022-12-18T14:47:59;17.65;;;7.30;;
29546;SDS011;40782;47.264;11.330;2022-12-18T14:50:26;12.50;;;7.30;;
29546;SDS011;40782;47.264;11.330;2022-12-18T14:52:55;17.02;;;8.77;;
29546;SDS011;40782;47.264;11.330;2022-12-18T14:55:22;22.35;;;10.63;;
29546;SDS011;40782;47.264;11.330;2022-12-18T14:57:49;14.15;;;7.72;;
29546;SDS011;40782;47.264;11.330;2022-12-18T15:00:19;10.80;;;7.20;;
29546;SDS011;40782;47.264;11.330;2022-12-18T15:02:48;15.13;;;8.73;;